sensor_id;sensor_type;location;lat;lon;timestamp;P1;durP1;ratioP1;P2;durP2;ratioP2
74371;SDS011;62885;51.374;6.170;2023-12-14T00:01:33;16.35;;;7.32;;
74371;SDS011;62885;51.374;6.170;2023-12-14T00:03:58;19.20;;;7.90;;
74371;SDS011;62885;51.374;6.170;2023-12-14T00:06:24;16.63;;;7.13;;
74371;SDS011;62885;51.374;6.170;2023-12-14T00:08:49;16.77;;;7.50;;
74371;SDS011;62885;51.374;6.170;2023-12-14T00:11:15;16.20;;;7.35;;
74371;SDS011;62885;51.374;6.170;2023-12-14T00:13:40;15.80;;;7.35;;
74371;SDS011;62885;51.374;6.170;2023-12-14T00:16:06;17.52;;;7.57;;
74371;SDS011;62885;51.374;6.170;2023-12-14T00:18:32;17.50;;;7.80;;
74371;SDS011;62885;51.374;6.170;2023-12-14T00:20:57;20.48;;;7.30;;
74371;SDS011;62885;51.374;6.170;2023-12-14T00:23:23;17.13;;;9.60;;
74371;SDS011;62885;51.374;6.170;2023-12-14T00:25:49;16.85;;;7.85;;
74371;SDS011;62885;51.374;6.170;2023-12-14T00:28:14;15.55;;;7.85;;
74371;SDS011;62885;51.374;6.170;2023-12-14T00:30:40;15.10;;;7.30;;
74371;SDS011;62885;51.374;6.170;2023-12-14T00:33:05;16.08;;;7.18;;
74371;SDS011;62885;51.374;6.170;2023-12-14T00:35:31;16.15;;;6.90;;
74371;SDS011;62885;51.374;6.170;2023-12-14T00:37:56;16.67;;;7.45;;
74371;SDS011;62885;51.374;6.170;2023-12-14T00:40:22;13.95;;;6.30;;
74371;SDS011;62885;51.374;6.170;2023-12-14T00:42:47;15.85;;;5.97;;
74371;SDS011;62885;51.374;6.170;2023-12-14T00:45:13;12.77;;;5.50;;
74371;SDS011;62885;51.374;6.170;2023-12-14T00:47:38;17.80;;;7.28;;
74371;SDS011;62885;51.374;6.170;2023-12-14T00:50:04;13.73;;;5.53;;
74371;SDS011;62885;51.374;6.170;2023-12-14T00:52:29;15.35;;;6.97;;
74371;SDS011;62885;51.374;6.170;2023-12-14T00:54:55;15.77;;;6.97;;
74371;SDS011;62885;51.374;6.170;2023-12-14T00:57:20;13.25;;;6.70;;
74371;SDS011;62885;51.374;6.170;2023-12-14T00:59:46;17.92;;;7.95;;
74371;SDS011;62885;51.374;6.170;2023-12-14T01:02:11;17.52;;;6.82;;
74371;SDS011;62885;51.374;6.170;2023-12-14T01:04:37;19.08;;;7.88;;
74371;SDS011;62885;51.374;6.170;2023-12-14T01:07:02;17.33;;;7.70;;
74371;SDS011;62885;51.374;6.170;2023-12-14T01:09:28;17.77;;;8.50;;
74371;SDS011;62885;51.374;6.170;2023-12-14T01:11:54;17.38;;;7.97;;
74371;SDS011;62885;51.374;6.170;2023-12-14T01:14:19;22.35;;;9.07;;
74371;SDS011;62885;51.374;6.170;2023-12-14T01:16:44;16.52;;;8.20;;
74371;SDS011;62885;51.374;6.170;2023-12-14T01:19:10;19.13;;;9.27;;
74371;SDS011;62885;51.374;6.170;2023-12-14T01:21:35;20.30;;;7.57;;
74371;SDS011;62885;51.374;6.170;2023-12-14T01:24:00;18.83;;;8.57;;
74371;SDS011;62885;51.374;6.170;2023-12-14T01:26:29;16.95;;;7.88;;
74371;SDS011;62885;51.374;6.170;2023-12-14T01:28:54;19.67;;;8.30;;
74371;SDS011;62885;51.374;6.170;2023-12-14T01:31:20;17.23;;;7.80;;
74371;SDS011;62885;51.374;6.170;2023-12-14T01:33:48;20.15;;;8.45;;
74371;SDS011;62885;51.374;6.170;2023-12-14T01:36:23;16.95;;;7.95;;
74371;SDS011;62885;51.374;6.170;2023-12-14T01:38:50;17.60;;;8.15;;
74371;SDS011;62885;51.374;6.170;2023-12-14T01:41:15;20.70;;;8.52;;
74371;SDS011;62885;51.374;6.170;2023-12-14T01:43:41;19.13;;;8.25;;
74371;SDS011;62885;51.374;6.170;2023-12-14T01:46:06;19.00;;;7.10;;
74371;SDS011;62885;51.374;6.170;2023-12-14T01:48:32;18.45;;;8.45;;
74371;SDS011;62885;51.374;6.170;2023-12-14T01:50:57;19.45;;;8.15;;
74371;SDS011;62885;51.374;6.170;2023-12-14T01:53:23;18.23;;;8.55;;
74371;SDS011;62885;51.374;6.170;2023-12-14T01:55:48;18.52;;;8.73;;
74371;SDS011;62885;51.374;6.170;2023-12-14T01:58:13;18.67;;;8.05;;
74371;SDS011;62885;51.374;6.170;2023-12-14T02:00:41;19.35;;;8.90;;
74371;SDS011;62885;51.374;6.170;2023-12-14T02:03:11;18.40;;;7.95;;
74371;SDS011;62885;51.374;6.170;2023-12-14T02:05:37;19.63;;;9.32;;
74371;SDS011;62885;51.374;6.170;2023-12-14T02:08:02;17.98;;;8.90;;
74371;SDS011;62885;51.374;6.170;2023-12-14T02:10:28;19.08;;;8.63;;
74371;SDS011;62885;51.374;6.170;2023-12-14T02:12:53;19.88;;;9.82;;
74371;SDS011;62885;51.374;6.170;2023-12-14T02:15:19;19.55;;;9.18;;
74371;SDS011;62885;51.374;6.170;2023-12-14T02:17:45;19.05;;;8.90;;
74371;SDS011;62885;51.374;6.170;2023-12-14T02:20:10;18.63;;;8.93;;
74371;SDS011;62885;51.374;6.170;2023-12-14T02:22:47;20.67;;;9.63;;
74371;SDS011;62885;51.374;6.170;2023-12-14T02:25:15;20.13;;;9.10;;
74371;SDS011;62885;51.374;6.170;2023-12-14T02:27:40;22.10;;;8.65;;
74371;SDS011;62885;51.374;6.170;2023-12-14T02:30:06;21.33;;;9.05;;
74371;SDS011;62885;51.374;6.170;2023-12-14T02:32:31;22.13;;;8.68;;
74371;SDS011;62885;51.374;6.170;2023-12-14T02:34:57;21.88;;;9.73;;
74371;SDS011;62885;51.374;6.170;2023-12-14T02:37:22;20.60;;;8.90;;
74371;SDS011;62885;51.374;6.170;2023-12-14T02:39:48;23.08;;;9.32;;
74371;SDS011;62885;51.374;6.170;2023-12-14T02:42:13;19.73;;;8.55;;
74371;SDS011;62885;51.374;6.170;2023-12-14T02:44:38;20.40;;;8.38;;
74371;SDS011;62885;51.374;6.170;2023-12-14T02:47:04;20.90;;;8.35;;
74371;SDS011;62885;51.374;6.170;2023-12-14T02:49:31;19.60;;;8.50;;
74371;SDS011;62885;51.374;6.170;2023-12-14T02:51:59;15.13;;;7.15;;
74371;SDS011;62885;51.374;6.170;2023-12-14T02:54:24;16.95;;;8.07;;
74371;SDS011;62885;51.374;6.170;2023-12-14T02:56:50;16.13;;;7.35;;
74371;SDS011;62885;51.374;6.170;2023-12-14T02:59:15;21.08;;;8.60;;
74371;SDS011;62885;51.374;6.170;2023-12-14T03:01:40;18.35;;;8.07;;
74371;SDS011;62885;51.374;6.170;2023-12-14T03:04:06;18.45;;;7.10;;
74371;SDS011;62885;51.374;6.170;2023-12-14T03:06:32;14.20;;;6.50;;
74371;SDS011;62885;51.374;6.170;2023-12-14T03:08:57;17.63;;;7.25;;
74371;SDS011;62885;51.374;6.170;2023-12-14T03:11:23;16.33;;;6.90;;
74371;SDS011;62885;51.374;6.170;2023-12-14T03:13:50;17.95;;;7.78;;
74371;SDS011;62885;51.374;6.170;2023-12-14T03:16:15;17.40;;;6.60;;
74371;SDS011;62885;51.374;6.170;2023-12-14T03:18:42;15.70;;;7.32;;
74371;SDS011;62885;51.374;6.170;2023-12-14T03:21:08;14.75;;;6.43;;
74371;SDS011;62885;51.374;6.170;2023-12-14T03:23:34;15.18;;;7.15;;
74371;SDS011;62885;51.374;6.170;2023-12-14T03:26:00;16.50;;;7.10;;
74371;SDS011;62885;51.374;6.170;2023-12-14T03:28:26;15.45;;;7.70;;
74371;SDS011;62885;51.374;6.170;2023-12-14T03:30:51;22.50;;;8.75;;
74371;SDS011;62885;51.374;6.170;2023-12-14T03:33:17;21.02;;;8.63;;
74371;SDS011;62885;51.374;6.170;2023-12-14T03:35:42;18.48;;;8.38;;
74371;SDS011;62885;51.374;6.170;2023-12-14T03:38:08;19.48;;;8.48;;
74371;SDS011;62885;51.374;6.170;2023-12-14T03:40:34;19.67;;;9.00;;
74371;SDS011;62885;51.374;6.170;2023-12-14T03:42:59;22.75;;;9.52;;
74371;SDS011;62885;51.374;6.170;2023-12-14T03:45:25;17.98;;;8.55;;
74371;SDS011;62885;51.374;6.170;2023-12-14T03:47:50;18.83;;;9.23;;
74371;SDS011;62885;51.374;6.170;2023-12-14T03:50:15;20.00;;;8.02;;
74371;SDS011;62885;51.374;6.170;2023-12-14T03:52:41;18.63;;;7.47;;
74371;SDS011;62885;51.374;6.170;2023-12-14T03:55:06;18.23;;;7.75;;
74371;SDS011;62885;51.374;6.170;2023-12-14T03:57:32;16.98;;;6.95;;
74371;SDS011;62885;51.374;6.170;2023-12-14T03:59:57;17.50;;;7.93;;
74371;SDS011;62885;51.374;6.170;2023-12-14T04:02:22;18.23;;;7.47;;
74371;SDS011;62885;51.374;6.170;2023-12-14T04:04:48;19.77;;;7.65;;
74371;SDS011;62885;51.374;6.170;2023-12-14T04:07:13;19.23;;;7.68;;
74371;SDS011;62885;51.374;6.170;2023-12-14T04:09:39;17.38;;;8.32;;
74371;SDS011;62885;51.374;6.170;2023-12-14T04:12:04;20.02;;;6.88;;
74371;SDS011;62885;51.374;6.170;2023-12-14T04:14:30;16.85;;;7.10;;
74371;SDS011;62885;51.374;6.170;2023-12-14T04:16:55;15.85;;;7.28;;
74371;SDS011;62885;51.374;6.170;2023-12-14T04:19:20;17.58;;;7.88;;
74371;SDS011;62885;51.374;6.170;2023-12-14T04:21:47;17.85;;;7.78;;
74371;SDS011;62885;51.374;6.170;2023-12-14T04:24:12;16.27;;;7.72;;
74371;SDS011;62885;51.374;6.170;2023-12-14T04:26:38;19.48;;;7.60;;
74371;SDS011;62885;51.374;6.170;2023-12-14T04:29:04;19.33;;;7.18;;
74371;SDS011;62885;51.374;6.170;2023-12-14T04:31:31;21.02;;;9.55;;
74371;SDS011;62885;51.374;6.170;2023-12-14T04:33:56;16.05;;;7.30;;
74371;SDS011;62885;51.374;6.170;2023-12-14T04:36:22;20.92;;;9.05;;
74371;SDS011;62885;51.374;6.170;2023-12-14T04:38:47;19.80;;;8.40;;
74371;SDS011;62885;51.374;6.170;2023-12-14T04:41:13;14.57;;;7.32;;
74371;SDS011;62885;51.374;6.170;2023-12-14T04:43:38;19.08;;;8.48;;
74371;SDS011;62885;51.374;6.170;2023-12-14T04:46:04;19.58;;;8.43;;
74371;SDS011;62885;51.374;6.170;2023-12-14T04:48:31;17.38;;;8.07;;
74371;SDS011;62885;51.374;6.170;2023-12-14T04:50:58;20.15;;;9.15;;
74371;SDS011;62885;51.374;6.170;2023-12-14T04:53:24;19.83;;;8.57;;
74371;SDS011;62885;51.374;6.170;2023-12-14T04:55:49;20.85;;;9.55;;
74371;SDS011;62885;51.374;6.170;2023-12-14T04:58:14;17.33;;;8.48;;
74371;SDS011;62885;51.374;6.170;2023-12-14T05:00:40;19.70;;;9.10;;
74371;SDS011;62885;51.374;6.170;2023-12-14T05:03:05;19.23;;;9.30;;
74371;SDS011;62885;51.374;6.170;2023-12-14T05:05:31;19.70;;;8.27;;
74371;SDS011;62885;51.374;6.170;2023-12-14T05:07:56;18.00;;;9.00;;
74371;SDS011;62885;51.374;6.170;2023-12-14T05:10:21;17.38;;;8.63;;
74371;SDS011;62885;51.374;6.170;2023-12-14T05:12:47;16.00;;;7.85;;
74371;SDS011;62885;51.374;6.170;2023-12-14T05:15:12;18.63;;;9.25;;
74371;SDS011;62885;51.374;6.170;2023-12-14T05:17:37;17.63;;;8.52;;
74371;SDS011;62885;51.374;6.170;2023-12-14T05:20:04;18.23;;;8.52;;
74371;SDS011;62885;51.374;6.170;2023-12-14T05:22:30;17.13;;;7.82;;
74371;SDS011;62885;51.374;6.170;2023-12-14T05:24:55;17.67;;;7.80;;
74371;SDS011;62885;51.374;6.170;2023-12-14T05:27:21;19.23;;;8.55;;
74371;SDS011;62885;51.374;6.170;2023-12-14T05:29:46;14.80;;;8.07;;
74371;SDS011;62885;51.374;6.170;2023-12-14T05:32:12;13.68;;;6.65;;
74371;SDS011;62885;51.374;6.170;2023-12-14T05:34:37;15.80;;;7.25;;
74371;SDS011;62885;51.374;6.170;2023-12-14T05:37:02;17.55;;;7.80;;
74371;SDS011;62885;51.374;6.170;2023-12-14T05:39:28;17.92;;;8.68;;
74371;SDS011;62885;51.374;6.170;2023-12-14T05:41:53;15.43;;;7.38;;
74371;SDS011;62885;51.374;6.170;2023-12-14T05:44:19;17.33;;;8.52;;
74371;SDS011;62885;51.374;6.170;2023-12-14T05:46:44;16.90;;;8.32;;
74371;SDS011;62885;51.374;6.170;2023-12-14T05:49:09;15.27;;;7.82;;
74371;SDS011;62885;51.374;6.170;2023-12-14T05:51:35;18.80;;;7.75;;
74371;SDS011;62885;51.374;6.170;2023-12-14T05:54:01;18.15;;;8.77;;
74371;SDS011;62885;51.374;6.170;2023-12-14T05:56:27;19.85;;;8.75;;
74371;SDS011;62885;51.374;6.170;2023-12-14T05:58:52;17.55;;;8.70;;
74371;SDS011;62885;51.374;6.170;2023-12-14T06:01:18;17.98;;;8.55;;
74371;SDS011;62885;51.374;6.170;2023-12-14T06:03:44;17.70;;;8.68;;
74371;SDS011;62885;51.374;6.170;2023-12-14T06:06:10;15.35;;;8.05;;
74371;SDS011;62885;51.374;6.170;2023-12-14T06:08:36;19.15;;;7.63;;
74371;SDS011;62885;51.374;6.170;2023-12-14T06:11:02;16.50;;;7.20;;
74371;SDS011;62885;51.374;6.170;2023-12-14T06:13:28;15.52;;;7.50;;
74371;SDS011;62885;51.374;6.170;2023-12-14T06:15:53;17.02;;;8.02;;
74371;SDS011;62885;51.374;6.170;2023-12-14T06:18:19;17.77;;;8.25;;
74371;SDS011;62885;51.374;6.170;2023-12-14T06:20:44;18.35;;;8.05;;
74371;SDS011;62885;51.374;6.170;2023-12-14T06:23:10;18.13;;;8.63;;
74371;SDS011;62885;51.374;6.170;2023-12-14T06:25:35;14.68;;;6.93;;
74371;SDS011;62885;51.374;6.170;2023-12-14T06:28:00;17.88;;;8.05;;
74371;SDS011;62885;51.374;6.170;2023-12-14T06:30:26;19.92;;;8.07;;
74371;SDS011;62885;51.374;6.170;2023-12-14T06:32:51;17.88;;;8.40;;
74371;SDS011;62885;51.374;6.170;2023-12-14T06:35:16;18.60;;;8.50;;
74371;SDS011;62885;51.374;6.170;2023-12-14T06:37:42;18.38;;;7.65;;
74371;SDS011;62885;51.374;6.170;2023-12-14T06:40:08;17.73;;;8.73;;
74371;SDS011;62885;51.374;6.170;2023-12-14T06:42:34;17.75;;;8.13;;
74371;SDS011;62885;51.374;6.170;2023-12-14T06:45:00;14.43;;;7.07;;
74371;SDS011;62885;51.374;6.170;2023-12-14T06:47:27;17.02;;;7.93;;
74371;SDS011;62885;51.374;6.170;2023-12-14T06:49:53;15.65;;;6.35;;
74371;SDS011;62885;51.374;6.170;2023-12-14T06:52:18;15.90;;;8.05;;
74371;SDS011;62885;51.374;6.170;2023-12-14T06:54:44;14.32;;;7.80;;
74371;SDS011;62885;51.374;6.170;2023-12-14T06:57:12;14.77;;;6.75;;
74371;SDS011;62885;51.374;6.170;2023-12-14T06:59:37;15.00;;;7.53;;
74371;SDS011;62885;51.374;6.170;2023-12-14T07:02:03;14.27;;;7.18;;
74371;SDS011;62885;51.374;6.170;2023-12-14T07:04:28;16.92;;;7.47;;
74371;SDS011;62885;51.374;6.170;2023-12-14T07:06:54;16.75;;;8.25;;
74371;SDS011;62885;51.374;6.170;2023-12-14T07:09:19;15.10;;;7.28;;
74371;SDS011;62885;51.374;6.170;2023-12-14T07:11:45;17.70;;;8.52;;
74371;SDS011;62885;51.374;6.170;2023-12-14T07:14:11;17.40;;;7.78;;
74371;SDS011;62885;51.374;6.170;2023-12-14T07:16:36;17.67;;;8.40;;
74371;SDS011;62885;51.374;6.170;2023-12-14T07:19:01;18.58;;;7.35;;
74371;SDS011;62885;51.374;6.170;2023-12-14T07:21:27;18.73;;;7.60;;
74371;SDS011;62885;51.374;6.170;2023-12-14T07:23:52;19.67;;;8.88;;
74371;SDS011;62885;51.374;6.170;2023-12-14T07:26:17;15.68;;;8.93;;
74371;SDS011;62885;51.374;6.170;2023-12-14T07:28:43;14.55;;;7.43;;
74371;SDS011;62885;51.374;6.170;2023-12-14T07:31:08;16.77;;;7.63;;
74371;SDS011;62885;51.374;6.170;2023-12-14T07:33:33;15.88;;;8.38;;
74371;SDS011;62885;51.374;6.170;2023-12-14T07:36:00;17.25;;;7.65;;
74371;SDS011;62885;51.374;6.170;2023-12-14T07:38:26;15.68;;;8.23;;
74371;SDS011;62885;51.374;6.170;2023-12-14T07:40:51;14.82;;;7.57;;
74371;SDS011;62885;51.374;6.170;2023-12-14T07:43:17;14.23;;;7.82;;
74371;SDS011;62885;51.374;6.170;2023-12-14T07:45:43;15.38;;;7.40;;
74371;SDS011;62885;51.374;6.170;2023-12-14T07:48:09;15.77;;;7.43;;
74371;SDS011;62885;51.374;6.170;2023-12-14T07:50:34;16.58;;;7.35;;
74371;SDS011;62885;51.374;6.170;2023-12-14T07:53:00;15.55;;;7.70;;
74371;SDS011;62885;51.374;6.170;2023-12-14T07:55:25;18.92;;;7.30;;
74371;SDS011;62885;51.374;6.170;2023-12-14T07:57:50;14.27;;;7.18;;
74371;SDS011;62885;51.374;6.170;2023-12-14T08:00:16;15.00;;;7.07;;
74371;SDS011;62885;51.374;6.170;2023-12-14T08:02:41;16.33;;;7.25;;
74371;SDS011;62885;51.374;6.170;2023-12-14T08:05:07;15.23;;;7.50;;
74371;SDS011;62885;51.374;6.170;2023-12-14T08:07:34;16.58;;;8.02;;
74371;SDS011;62885;51.374;6.170;2023-12-14T08:09:59;13.65;;;7.03;;
74371;SDS011;62885;51.374;6.170;2023-12-14T08:12:25;14.25;;;7.32;;
74371;SDS011;62885;51.374;6.170;2023-12-14T08:14:51;14.77;;;7.35;;
74371;SDS011;62885;51.374;6.170;2023-12-14T08:17:17;16.27;;;8.07;;
74371;SDS011;62885;51.374;6.170;2023-12-14T08:19:42;14.15;;;7.28;;
74371;SDS011;62885;51.374;6.170;2023-12-14T08:22:08;13.48;;;7.35;;
74371;SDS011;62885;51.374;6.170;2023-12-14T08:24:37;16.08;;;8.13;;
74371;SDS011;62885;51.374;6.170;2023-12-14T08:27:05;14.10;;;7.05;;
74371;SDS011;62885;51.374;6.170;2023-12-14T08:29:30;17.60;;;7.93;;
74371;SDS011;62885;51.374;6.170;2023-12-14T08:31:56;15.93;;;7.15;;
74371;SDS011;62885;51.374;6.170;2023-12-14T08:34:25;14.65;;;7.68;;
74371;SDS011;62885;51.374;6.170;2023-12-14T08:36:51;14.55;;;6.68;;
74371;SDS011;62885;51.374;6.170;2023-12-14T08:39:16;14.07;;;7.13;;
74371;SDS011;62885;51.374;6.170;2023-12-14T08:41:42;12.77;;;6.28;;
74371;SDS011;62885;51.374;6.170;2023-12-14T08:44:07;13.38;;;7.00;;
74371;SDS011;62885;51.374;6.170;2023-12-14T08:46:40;12.10;;;5.68;;
74371;SDS011;62885;51.374;6.170;2023-12-14T08:49:06;14.40;;;6.55;;
74371;SDS011;62885;51.374;6.170;2023-12-14T08:51:31;15.30;;;7.05;;
74371;SDS011;62885;51.374;6.170;2023-12-14T08:53:57;13.27;;;6.28;;
74371;SDS011;62885;51.374;6.170;2023-12-14T08:56:22;13.65;;;6.88;;
74371;SDS011;62885;51.374;6.170;2023-12-14T08:58:47;14.20;;;6.22;;
74371;SDS011;62885;51.374;6.170;2023-12-14T09:01:18;13.05;;;6.25;;
74371;SDS011;62885;51.374;6.170;2023-12-14T09:03:47;12.70;;;6.13;;
74371;SDS011;62885;51.374;6.170;2023-12-14T09:06:13;11.80;;;6.20;;
74371;SDS011;62885;51.374;6.170;2023-12-14T09:08:39;12.90;;;5.85;;
74371;SDS011;62885;51.374;6.170;2023-12-14T09:11:05;13.48;;;6.80;;
74371;SDS011;62885;51.374;6.170;2023-12-14T09:13:31;12.20;;;6.45;;
74371;SDS011;62885;51.374;6.170;2023-12-14T09:15:56;11.75;;;6.15;;
74371;SDS011;62885;51.374;6.170;2023-12-14T09:18:22;14.18;;;6.38;;
74371;SDS011;62885;51.374;6.170;2023-12-14T09:20:48;13.60;;;6.18;;
74371;SDS011;62885;51.374;6.170;2023-12-14T09:23:16;13.20;;;6.57;;
74371;SDS011;62885;51.374;6.170;2023-12-14T09:25:43;13.13;;;6.80;;
74371;SDS011;62885;51.374;6.170;2023-12-14T09:30:36;13.23;;;6.10;;
74371;SDS011;62885;51.374;6.170;2023-12-14T09:33:02;14.80;;;6.25;;
74371;SDS011;62885;51.374;6.170;2023-12-14T09:35:27;11.75;;;6.25;;
74371;SDS011;62885;51.374;6.170;2023-12-14T09:37:52;14.57;;;6.30;;
74371;SDS011;62885;51.374;6.170;2023-12-14T09:40:18;15.43;;;6.32;;
74371;SDS011;62885;51.374;6.170;2023-12-14T09:42:44;13.63;;;6.53;;
74371;SDS011;62885;51.374;6.170;2023-12-14T09:45:10;16.13;;;7.32;;
74371;SDS011;62885;51.374;6.170;2023-12-14T09:47:36;13.18;;;6.45;;
74371;SDS011;62885;51.374;6.170;2023-12-14T09:50:02;14.65;;;7.03;;
74371;SDS011;62885;51.374;6.170;2023-12-14T09:52:29;12.82;;;6.38;;
74371;SDS011;62885;51.374;6.170;2023-12-14T09:54:54;13.63;;;6.18;;
74371;SDS011;62885;51.374;6.170;2023-12-14T09:57:19;12.00;;;5.85;;
74371;SDS011;62885;51.374;6.170;2023-12-14T09:59:54;13.00;;;6.30;;
74371;SDS011;62885;51.374;6.170;2023-12-14T10:02:24;14.50;;;6.05;;
74371;SDS011;62885;51.374;6.170;2023-12-14T10:04:53;11.82;;;6.50;;
74371;SDS011;62885;51.374;6.170;2023-12-14T10:07:19;14.45;;;6.07;;
74371;SDS011;62885;51.374;6.170;2023-12-14T10:09:46;10.95;;;5.50;;
74371;SDS011;62885;51.374;6.170;2023-12-14T10:12:12;12.75;;;5.80;;
74371;SDS011;62885;51.374;6.170;2023-12-14T10:14:37;12.65;;;6.07;;
74371;SDS011;62885;51.374;6.170;2023-12-14T10:17:19;13.38;;;6.47;;
74371;SDS011;62885;51.374;6.170;2023-12-14T10:19:56;11.65;;;5.85;;
74371;SDS011;62885;51.374;6.170;2023-12-14T10:22:22;13.05;;;5.85;;
74371;SDS011;62885;51.374;6.170;2023-12-14T10:24:47;12.13;;;5.50;;
74371;SDS011;62885;51.374;6.170;2023-12-14T10:27:14;11.82;;;5.25;;
74371;SDS011;62885;51.374;6.170;2023-12-14T10:29:40;12.07;;;5.43;;
74371;SDS011;62885;51.374;6.170;2023-12-14T10:32:06;13.88;;;5.15;;
74371;SDS011;62885;51.374;6.170;2023-12-14T10:34:34;17.60;;;5.82;;
74371;SDS011;62885;51.374;6.170;2023-12-14T10:37:00;12.18;;;5.28;;
74371;SDS011;62885;51.374;6.170;2023-12-14T10:39:26;12.63;;;6.18;;
74371;SDS011;62885;51.374;6.170;2023-12-14T10:41:53;12.35;;;5.55;;
74371;SDS011;62885;51.374;6.170;2023-12-14T10:44:21;14.18;;;5.63;;
74371;SDS011;62885;51.374;6.170;2023-12-14T10:46:50;12.55;;;6.20;;
74371;SDS011;62885;51.374;6.170;2023-12-14T10:49:23;13.20;;;5.43;;
74371;SDS011;62885;51.374;6.170;2023-12-14T10:51:50;10.57;;;5.35;;
74371;SDS011;62885;51.374;6.170;2023-12-14T10:54:17;13.20;;;5.07;;
74371;SDS011;62885;51.374;6.170;2023-12-14T10:56:44;12.13;;;5.65;;
74371;SDS011;62885;51.374;6.170;2023-12-14T10:59:09;12.32;;;5.80;;
74371;SDS011;62885;51.374;6.170;2023-12-14T11:01:35;11.05;;;5.13;;
74371;SDS011;62885;51.374;6.170;2023-12-14T11:04:03;12.55;;;5.40;;
74371;SDS011;62885;51.374;6.170;2023-12-14T11:06:32;10.35;;;4.50;;
74371;SDS011;62885;51.374;6.170;2023-12-14T11:09:01;10.50;;;4.53;;
74371;SDS011;62885;51.374;6.170;2023-12-14T11:11:39;9.30;;;4.47;;
74371;SDS011;62885;51.374;6.170;2023-12-14T11:14:18;9.15;;;4.30;;
74371;SDS011;62885;51.374;6.170;2023-12-14T11:16:44;10.50;;;4.82;;
74371;SDS011;62885;51.374;6.170;2023-12-14T11:19:32;9.57;;;4.30;;
74371;SDS011;62885;51.374;6.170;2023-12-14T11:22:23;11.02;;;4.45;;
74371;SDS011;62885;51.374;6.170;2023-12-14T11:24:53;10.65;;;4.03;;
74371;SDS011;62885;51.374;6.170;2023-12-14T11:27:29;9.55;;;4.60;;
74371;SDS011;62885;51.374;6.170;2023-12-14T11:29:56;11.18;;;3.85;;
74371;SDS011;62885;51.374;6.170;2023-12-14T11:32:21;11.68;;;4.63;;
74371;SDS011;62885;51.374;6.170;2023-12-14T11:34:46;10.73;;;3.97;;
74371;SDS011;62885;51.374;6.170;2023-12-14T11:37:12;12.10;;;4.50;;
74371;SDS011;62885;51.374;6.170;2023-12-14T11:39:38;10.13;;;4.78;;
74371;SDS011;62885;51.374;6.170;2023-12-14T11:42:04;11.85;;;4.50;;
74371;SDS011;62885;51.374;6.170;2023-12-14T11:44:32;10.90;;;3.95;;
74371;SDS011;62885;51.374;6.170;2023-12-14T11:46:57;8.20;;;4.03;;
74371;SDS011;62885;51.374;6.170;2023-12-14T11:49:26;9.38;;;4.32;;
74371;SDS011;62885;51.374;6.170;2023-12-14T11:51:52;9.45;;;4.38;;
74371;SDS011;62885;51.374;6.170;2023-12-14T11:54:18;10.25;;;4.40;;
74371;SDS011;62885;51.374;6.170;2023-12-14T11:56:48;9.38;;;3.85;;
74371;SDS011;62885;51.374;6.170;2023-12-14T11:59:17;10.35;;;4.30;;
74371;SDS011;62885;51.374;6.170;2023-12-14T12:01:53;10.45;;;4.55;;
74371;SDS011;62885;51.374;6.170;2023-12-14T12:04:25;9.20;;;4.00;;
74371;SDS011;62885;51.374;6.170;2023-12-14T12:07:04;8.70;;;4.10;;
74371;SDS011;62885;51.374;6.170;2023-12-14T12:09:41;10.70;;;4.63;;
74371;SDS011;62885;51.374;6.170;2023-12-14T12:12:08;9.40;;;4.00;;
74371;SDS011;62885;51.374;6.170;2023-12-14T12:14:34;9.15;;;3.83;;
74371;SDS011;62885;51.374;6.170;2023-12-14T12:17:00;10.25;;;4.43;;
74371;SDS011;62885;51.374;6.170;2023-12-14T12:19:26;9.07;;;3.90;;
74371;SDS011;62885;51.374;6.170;2023-12-14T12:21:51;9.38;;;4.40;;
74371;SDS011;62885;51.374;6.170;2023-12-14T12:24:17;11.07;;;4.18;;
74371;SDS011;62885;51.374;6.170;2023-12-14T12:26:42;10.15;;;4.68;;
74371;SDS011;62885;51.374;6.170;2023-12-14T12:29:08;12.02;;;5.03;;
74371;SDS011;62885;51.374;6.170;2023-12-14T12:31:33;12.18;;;5.60;;
74371;SDS011;62885;51.374;6.170;2023-12-14T12:33:59;10.32;;;4.47;;
74371;SDS011;62885;51.374;6.170;2023-12-14T12:36:24;9.63;;;4.35;;
74371;SDS011;62885;51.374;6.170;2023-12-14T12:38:50;10.63;;;4.93;;
74371;SDS011;62885;51.374;6.170;2023-12-14T12:41:16;10.57;;;4.47;;
74371;SDS011;62885;51.374;6.170;2023-12-14T12:43:42;10.45;;;4.82;;
74371;SDS011;62885;51.374;6.170;2023-12-14T12:46:08;13.73;;;5.40;;
74371;SDS011;62885;51.374;6.170;2023-12-14T12:48:34;12.38;;;4.90;;
74371;SDS011;62885;51.374;6.170;2023-12-14T12:51:00;11.00;;;5.13;;
74371;SDS011;62885;51.374;6.170;2023-12-14T12:53:25;11.07;;;5.25;;
74371;SDS011;62885;51.374;6.170;2023-12-14T12:55:51;10.80;;;4.68;;
74371;SDS011;62885;51.374;6.170;2023-12-14T12:58:17;11.23;;;5.30;;
74371;SDS011;62885;51.374;6.170;2023-12-14T13:00:42;11.07;;;5.03;;
74371;SDS011;62885;51.374;6.170;2023-12-14T13:03:08;9.88;;;4.30;;
74371;SDS011;62885;51.374;6.170;2023-12-14T13:05:33;10.80;;;4.85;;
74371;SDS011;62885;51.374;6.170;2023-12-14T13:07:58;11.85;;;4.53;;
74371;SDS011;62885;51.374;6.170;2023-12-14T13:10:24;10.73;;;5.13;;
74371;SDS011;62885;51.374;6.170;2023-12-14T13:12:52;9.98;;;4.70;;
74371;SDS011;62885;51.374;6.170;2023-12-14T13:15:18;11.70;;;4.88;;
74371;SDS011;62885;51.374;6.170;2023-12-14T13:17:49;10.18;;;5.28;;
74371;SDS011;62885;51.374;6.170;2023-12-14T13:20:14;8.65;;;4.25;;
74371;SDS011;62885;51.374;6.170;2023-12-14T13:22:40;9.80;;;4.57;;
74371;SDS011;62885;51.374;6.170;2023-12-14T13:25:05;8.48;;;4.20;;
74371;SDS011;62885;51.374;6.170;2023-12-14T13:27:31;9.60;;;4.55;;
74371;SDS011;62885;51.374;6.170;2023-12-14T13:29:56;10.75;;;4.80;;
74371;SDS011;62885;51.374;6.170;2023-12-14T13:32:22;11.38;;;5.47;;
74371;SDS011;62885;51.374;6.170;2023-12-14T13:34:47;10.40;;;4.32;;
74371;SDS011;62885;51.374;6.170;2023-12-14T13:37:13;11.80;;;5.93;;
74371;SDS011;62885;51.374;6.170;2023-12-14T13:39:38;11.38;;;5.07;;
74371;SDS011;62885;51.374;6.170;2023-12-14T13:42:06;10.85;;;5.43;;
74371;SDS011;62885;51.374;6.170;2023-12-14T13:44:32;9.52;;;4.13;;
74371;SDS011;62885;51.374;6.170;2023-12-14T13:46:59;10.68;;;4.82;;
74371;SDS011;62885;51.374;6.170;2023-12-14T13:49:28;11.93;;;5.22;;
74371;SDS011;62885;51.374;6.170;2023-12-14T13:51:53;9.68;;;4.75;;
74371;SDS011;62885;51.374;6.170;2023-12-14T13:54:19;8.25;;;3.70;;
74371;SDS011;62885;51.374;6.170;2023-12-14T13:56:44;11.07;;;4.75;;
74371;SDS011;62885;51.374;6.170;2023-12-14T13:59:10;10.70;;;4.93;;
74371;SDS011;62885;51.374;6.170;2023-12-14T14:01:35;11.23;;;4.63;;
74371;SDS011;62885;51.374;6.170;2023-12-14T14:04:01;10.88;;;4.32;;
74371;SDS011;62885;51.374;6.170;2023-12-14T14:06:27;11.90;;;4.82;;
74371;SDS011;62885;51.374;6.170;2023-12-14T14:08:52;10.85;;;4.88;;
74371;SDS011;62885;51.374;6.170;2023-12-14T14:11:18;10.30;;;4.95;;
74371;SDS011;62885;51.374;6.170;2023-12-14T14:13:44;9.38;;;4.63;;
74371;SDS011;62885;51.374;6.170;2023-12-14T14:16:10;9.90;;;4.57;;
74371;SDS011;62885;51.374;6.170;2023-12-14T14:18:35;10.55;;;4.38;;
74371;SDS011;62885;51.374;6.170;2023-12-14T14:21:01;10.20;;;5.10;;
74371;SDS011;62885;51.374;6.170;2023-12-14T14:23:26;12.43;;;5.63;;
74371;SDS011;62885;51.374;6.170;2023-12-14T14:25:51;11.27;;;5.15;;
74371;SDS011;62885;51.374;6.170;2023-12-14T14:28:19;13.32;;;5.28;;
74371;SDS011;62885;51.374;6.170;2023-12-14T14:30:46;12.23;;;5.18;;
74371;SDS011;62885;51.374;6.170;2023-12-14T14:33:11;12.70;;;4.78;;